Bedford, Michigan
Current Conditions -  °F | °C
As of 7:22 PM on Saturday 20 Dec 2014 (Local Time) from KBTL Reporting Station
Overcast Overcast  
Wind Chill: 31°   Ceiling: 2900
Heat Index: 31°   Visibility: 10mi
Dew Point: 23°   Wind: 0mph
Humidity: 72%   Direction: NA
Pressure: 30.26"   Gusts: NA
Location:  42.4°N, 85.23°W
Report Text: KBTL 210022Z 00000KT 10SM OVC029 M01/M05 A3026 RMK AO2 T10061050
Loading
Personal Weather Stations






























Interactive Weather Map New forecast layout! Learn more

10-Day Weather Forecast

Advertisements
Track Severe Weather on mobile